Time;durP1;ratioP1;P1;durP2;ratioP2;P2;SDS_P1;SDS_P2;PMS_P1;PMS_P2;Temp;Humidity;BMP_temperature;BMP_pressure;BME280_temperature;BME280_humidity;BME280_pressure;Samples;Min_cycle;Max_cycle;Signal;HPM_P1;HPM_P2
2023/10/21 00:01:07;;;;;;;2.15;0.80;;;;;;;14.85;99.46;97219.00;10351458;28;20064;-57
2023/10/21 00:06:09;;;;;;;1.38;0.80;;;;;;;15.00;99.32;97240.03;10347918;28;20059;-56
2023/10/21 00:11:12;;;;;;;2.28;0.85;;;;;;;14.97;99.42;97235.13;10349006;28;20049;-56
2023/10/21 00:16:15;;;;;;;2.70;0.90;;;;;;;15.00;99.23;97236.53;10349742;28;20495;-56
2023/10/21 00:21:17;;;;;;;1.90;0.73;;;;;;;14.89;99.28;97234.59;10344944;28;20128;-56
2023/10/21 00:26:19;;;;;;;1.30;0.80;;;;;;;14.90;98.96;97236.25;10351601;28;20295;-56
2023/10/21 00:31:21;;;;;;;2.20;1.00;;;;;;;14.81;98.09;97239.22;10353001;28;20092;-56
2023/10/21 00:36:22;;;;;;;1.40;0.95;;;;;;;14.79;98.68;97244.00;10342836;28;20080;-56
2023/10/21 00:41:24;;;;;;;1.67;0.73;;;;;;;14.85;98.29;97251.13;10350613;28;20615;-57
2023/10/21 00:46:26;;;;;;;2.25;1.02;;;;;;;14.85;97.89;97253.81;10344118;28;20049;-57
2023/10/21 00:51:28;;;;;;;1.00;0.47;;;;;;;14.85;98.08;97253.81;10347532;28;20405;-56
2023/10/21 00:56:29;;;;;;;1.63;0.50;;;;;;;14.82;98.12;97262.28;10349285;28;20123;-57
2023/10/21 01:01:34;;;;;;;2.65;0.73;;;;;;;14.81;98.03;97265.19;10342062;28;20050;-57
2023/10/21 01:06:36;;;;;;;1.10;0.60;;;;;;;14.79;97.81;97276.13;10346532;28;20050;-57
2023/10/21 01:11:37;;;;;;;1.48;0.52;;;;;;;14.81;97.20;97281.25;10353955;28;20060;-57
2023/10/21 01:16:39;;;;;;;2.90;0.60;;;;;;;14.67;96.48;97267.22;10352115;28;20045;-57
2023/10/21 01:21:40;;;;;;;0.90;0.30;;;;;;;14.71;96.41;97273.72;10349166;28;20705;-57
2023/10/21 01:26:41;;;;;;;0.20;0.15;;;;;;;14.70;97.47;97280.16;10345277;28;20266;-57
2023/10/21 01:31:43;;;;;;;1.35;0.43;;;;;;;14.72;98.09;97275.38;10345142;28;20285;-57
2023/10/21 01:36:46;;;;;;;0.90;0.20;;;;;;;14.66;99.87;97269.03;10335068;28;20317;-57
2023/10/21 01:41:47;;;;;;;0.93;0.20;;;;;;;14.71;100.00;97276.41;10332048;28;20417;-56
2023/10/21 01:46:49;;;;;;;1.58;0.20;;;;;;;14.74;100.00;97284.03;10318424;28;20053;-57
2023/10/21 01:51:50;;;;;;;1.08;0.20;;;;;;;14.72;100.00;97294.13;10332968;28;20454;-58
2023/10/21 01:56:52;;;;;;;0.50;0.08;;;;;;;14.69;100.00;97283.03;10332939;28;20497;-57
2023/10/21 02:01:53;;;;;;;0.32;0.15;;;;;;;14.74;100.00;97275.16;10331362;28;20574;-57
2023/10/21 02:06:55;;;;;;;1.85;0.10;;;;;;;14.74;100.00;97297.41;10330655;28;20056;-57
2023/10/21 02:11:57;;;;;;;0.35;0.00;;;;;;;14.70;100.00;97296.22;10330557;28;20066;-57
2023/10/21 02:16:58;;;;;;;1.33;0.20;;;;;;;14.74;100.00;97305.44;10334270;28;20707;-57
2023/10/21 02:22:00;;;;;;;0.47;0.00;;;;;;;14.71;100.00;97316.56;10328615;28;20109;-58
2023/10/21 02:27:02;;;;;;;2.25;0.10;;;;;;;14.66;100.00;97305.72;10329894;28;20142;-56
2023/10/21 02:32:04;;;;;;;0.38;0.10;;;;;;;14.65;100.00;97320.13;10331915;28;20067;-56
2023/10/21 02:37:06;;;;;;;0.95;0.00;;;;;;;14.69;100.00;97342.75;10331417;28;20122;-56
2023/10/21 02:42:07;;;;;;;2.28;0.00;;;;;;;14.68;100.00;97359.84;10334118;28;20054;-55
2023/10/21 02:47:09;;;;;;;0.30;0.00;;;;;;;14.63;100.00;97365.06;10336832;28;20129;-57
2023/10/21 02:52:10;;;;;;;0.52;0.10;;;;;;;14.63;100.00;97365.06;10339434;28;20053;-57
2023/10/21 02:57:12;;;;;;;0.30;0.00;;;;;;;14.67;100.00;97368.94;10335276;28;20056;-57
2023/10/21 03:02:13;;;;;;;0.25;0.10;;;;;;;14.64;100.00;97390.78;10332428;28;20083;-57
2023/10/21 03:07:15;;;;;;;0.43;0.00;;;;;;;14.66;100.00;97399.41;10337589;28;20053;-57
2023/10/21 03:12:16;;;;;;;0.17;0.00;;;;;;;14.66;100.00;97402.09;10331782;28;20053;-57
2023/10/21 03:17:19;;;;;;;0.20;0.00;;;;;;;14.72;100.00;97427.16;10339252;28;20041;-57
2023/10/21 03:22:21;;;;;;;0.95;0.00;;;;;;;14.72;100.00;97436.00;10341919;28;20370;-57
2023/10/21 03:27:23;;;;;;;1.10;0.00;;;;;;;14.64;99.24;97481.81;10336961;28;20060;-57
2023/10/21 03:32:24;;;;;;;0.20;0.00;;;;;;;14.71;99.06;97484.44;10333810;28;20054;-57
2023/10/21 03:37:26;;;;;;;0.85;0.00;;;;;;;14.72;98.40;97519.00;10336472;28;20049;-59
2023/10/21 03:42:28;;;;;;;0.45;0.20;;;;;;;14.72;97.93;97558.38;10338525;28;20549;-58
2023/10/21 03:47:29;;;;;;;0.75;0.25;;;;;;;14.73;98.11;97578.75;10330186;28;20062;-57
2023/10/21 03:52:31;;;;;;;0.50;0.10;;;;;;;14.72;97.09;97587.81;10332702;28;20163;-58
2023/10/21 03:57:32;;;;;;;0.47;0.00;;;;;;;14.70;97.04;97617.47;10338956;28;20119;-57
2023/10/21 04:02:34;;;;;;;0.20;0.00;;;;;;;14.72;97.80;97636.00;10335969;28;20192;-58
2023/10/21 04:07:35;;;;;;;0.32;0.00;;;;;;;14.66;98.24;97653.75;10333654;28;20118;-57
2023/10/21 04:12:39;;;;;;;0.90;0.00;;;;;;;14.66;98.65;97659.09;10338720;28;20053;-57
2023/10/21 04:17:40;;;;;;;0.35;0.08;;;;;;;14.68;99.22;97673.09;10332826;28;20405;-56
2023/10/21 04:22:43;;;;;;;0.50;0.20;;;;;;;14.74;99.79;97712.41;10334599;28;20464;-57
2023/10/21 04:27:45;;;;;;;2.05;0.10;;;;;;;14.75;100.00;97721.25;10336539;28;20045;-57
2023/10/21 04:32:46;;;;;;;0.50;0.20;;;;;;;14.71;100.00;97739.59;10336318;28;20522;-57
2023/10/21 04:37:48;;;;;;;0.00;0.00;;;;;;;14.67;100.00;97744.56;10333951;28;20201;-57
2023/10/21 04:42:49;;;;;;;1.10;0.00;;;;;;;14.74;100.00;97768.66;10324920;28;20045;-57
2023/10/21 04:47:51;;;;;;;0.22;0.03;;;;;;;14.71;100.00;97771.72;10341454;28;20367;-57
2023/10/21 04:52:53;;;;;;;0.63;0.00;;;;;;;14.69;100.00;97771.13;10332329;28;20057;-57
2023/10/21 04:57:54;;;;;;;1.58;0.10;;;;;;;14.63;100.00;97788.84;10337820;28;20049;-57
2023/10/21 05:02:56;;;;;;;0.30;0.05;;;;;;;14.64;100.00;97811.91;10338536;28;20700;-57
2023/10/21 05:07:57;;;;;;;0.35;0.10;;;;;;;14.63;100.00;97820.16;10333382;28;20564;-57
2023/10/21 05:12:59;;;;;;;0.50;0.20;;;;;;;14.67;100.00;97832.09;10325290;28;20068;-56
2023/10/21 05:18:01;;;;;;;1.08;0.10;;;;;;;14.62;100.00;97829.22;10335872;28;20611;-56
2023/10/21 05:23:03;;;;;;;0.40;0.00;;;;;;;14.66;100.00;97858.03;10322163;28;20054;-58
2023/10/21 05:28:05;;;;;;;0.68;0.28;;;;;;;14.67;100.00;97874.94;10324358;28;20053;-56
2023/10/21 05:33:06;;;;;;;0.75;0.10;;;;;;;14.67;100.00;97888.31;10319845;28;20077;-57
2023/10/21 05:38:10;;;;;;;0.30;0.05;;;;;;;14.67;100.00;97888.31;10325815;28;20088;-57
2023/10/21 05:43:12;;;;;;;1.25;0.20;;;;;;;14.72;100.00;97909.13;10335345;28;20046;-56
2023/10/21 05:48:13;;;;;;;1.88;0.30;;;;;;;14.63;100.00;97908.50;10339379;28;20096;-57
2023/10/21 05:53:15;;;;;;;0.40;0.20;;;;;;;14.64;100.00;97928.91;10336883;28;20079;-56
2023/10/21 05:58:16;;;;;;;1.58;0.52;;;;;;;14.52;100.00;97925.16;10338326;28;20061;-58
2023/10/21 06:03:18;;;;;;;0.50;0.30;;;;;;;14.51;100.00;97940.38;10339551;28;20854;-57
2023/10/21 06:08:19;;;;;;;1.77;0.20;;;;;;;14.48;100.00;97951.50;10337627;28;20064;-60
2023/10/21 06:13:21;;;;;;;1.38;0.60;;;;;;;14.47;100.00;97971.25;10336998;28;20602;-56
2023/10/21 06:18:23;;;;;;;0.70;0.20;;;;;;;14.44;100.00;97977.88;10335950;28;20066;-56
2023/10/21 06:23:24;;;;;;;1.35;0.20;;;;;;;14.44;100.00;97982.38;10343927;28;20057;-57
2023/10/21 06:28:26;;;;;;;0.65;0.10;;;;;;;14.33;100.00;97975.78;10344611;28;20131;-57
2023/10/21 06:33:28;;;;;;;0.80;0.20;;;;;;;14.46;100.00;98013.28;10342639;28;20130;-57
2023/10/21 06:38:30;;;;;;;0.90;0.10;;;;;;;14.50;100.00;98038.63;10342207;28;20101;-56
2023/10/21 06:43:32;;;;;;;0.60;0.05;;;;;;;14.41;100.00;98036.31;10343101;28;20512;-59
2023/10/21 06:48:33;;;;;;;0.47;0.10;;;;;;;14.37;100.00;98027.06;10344977;28;20246;-57
2023/10/21 06:53:35;;;;;;;0.90;0.10;;;;;;;14.69;100.00;98076.38;10342396;28;20436;-57
2023/10/21 06:58:37;;;;;;;0.20;0.10;;;;;;;14.64;100.00;98084.19;10350561;28;20152;-57
2023/10/21 07:03:39;;;;;;;1.05;0.13;;;;;;;14.61;100.00;98095.31;10348679;28;20501;-57
2023/10/21 07:08:41;;;;;;;0.50;0.10;;;;;;;14.61;100.00;98111.38;10341032;28;20413;-57
2023/10/21 07:13:42;;;;;;;0.40;0.10;;;;;;;14.58;100.00;98127.81;10336700;28;20045;-57
2023/10/21 07:18:44;;;;;;;0.35;0.10;;;;;;;14.54;99.82;98132.72;10339919;28;20438;-58
2023/10/21 07:23:45;;;;;;;0.20;0.00;;;;;;;14.54;97.96;98146.09;10340625;28;20204;-58
2023/10/21 07:28:47;;;;;;;1.60;0.20;;;;;;;14.73;97.76;98152.59;10340559;28;20291;-57
2023/10/21 07:33:51;;;;;;;0.73;0.10;;;;;;;14.87;96.74;98158.81;10329335;28;20419;-59
2023/10/21 07:38:53;;;;;;;1.75;0.10;;;;;;;15.02;95.15;98177.38;10336795;28;20732;-58
2023/10/21 07:43:54;;;;;;;1.17;0.25;;;;;;;15.23;93.98;98194.34;10335384;28;20065;-59
2023/10/21 07:48:59;;;;;;;1.60;0.20;;;;;;;15.33;93.63;98186.72;10339119;28;21269;-59
2023/10/21 07:54:01;;;;;;;0.63;0.10;;;;;;;15.52;90.66;98204.69;10340366;28;20053;-57
2023/10/21 07:59:02;;;;;;;0.77;0.10;;;;;;;15.60;89.25;98210.84;10337513;28;20049;-58
2023/10/21 08:04:04;;;;;;;1.15;0.22;;;;;;;15.63;83.33;98213.16;10324259;28;20581;-58
2023/10/21 08:09:08;;;;;;;0.40;0.10;;;;;;;15.47;81.34;98223.22;10329836;28;20071;-58
2023/10/21 08:14:10;;;;;;;0.35;0.10;;;;;;;15.36;79.63;98230.00;10333681;28;20056;-58
2023/10/21 08:19:12;;;;;;;1.02;0.00;;;;;;;15.35;80.41;98235.59;10337617;28;20416;-58
2023/10/21 08:24:14;;;;;;;1.33;0.10;;;;;;;15.37;80.31;98254.97;10335883;28;20061;-59
2023/10/21 08:29:16;;;;;;;0.75;0.10;;;;;;;15.30;79.88;98275.59;10336577;28;20191;-57
2023/10/21 08:34:17;;;;;;;1.02;0.13;;;;;;;15.26;79.36;98280.50;10330157;28;20637;-60
2023/10/21 08:39:20;;;;;;;3.58;0.17;;;;;;;15.31;78.86;98298.66;10333007;28;20053;-59
2023/10/21 08:44:23;;;;;;;0.80;0.15;;;;;;;15.31;78.65;98310.22;10329564;28;20447;-58
2023/10/21 08:49:25;;;;;;;1.10;0.08;;;;;;;15.50;78.60;98303.25;10333899;28;20085;-59
2023/10/21 08:54:28;;;;;;;2.53;0.20;;;;;;;15.75;78.39;98329.50;10320254;28;20346;-59
2023/10/21 08:59:29;;;;;;;1.50;0.20;;;;;;;15.76;78.18;98344.53;10326951;28;20053;-59
2023/10/21 09:04:32;;;;;;;4.18;0.60;;;;;;;15.64;75.39;98335.44;10336008;28;20154;-59
2023/10/21 09:09:34;;;;;;;1.25;0.20;;;;;;;16.00;72.69;98361.97;10330776;28;20054;-59
2023/10/21 09:14:55;;;;;;;2.20;0.43;;;;;;;16.09;68.54;98365.25;10331396;28;20049;-61
2023/10/21 09:19:57;;;;;;;1.10;0.30;;;;;;;16.20;68.54;98366.53;10331162;28;20138;-59
2023/10/21 09:25:14;;;;;;;1.77;0.20;;;;;;;16.38;65.68;98373.97;10341905;28;20060;-62
2023/10/21 09:30:18;;;;;;;0.55;0.20;;;;;;;16.22;65.47;98375.19;10338954;28;20482;-58
2023/10/21 09:35:30;;;;;;;2.25;0.20;;;;;;;16.36;66.64;98401.03;10338618;28;20057;-59
2023/10/21 09:40:32;;;;;;;1.27;0.52;;;;;;;16.17;67.52;98412.53;10341039;28;20058;-59
2023/10/21 09:45:34;;;;;;;1.70;0.10;;;;;;;15.99;67.23;98415.81;10334332;28;20048;-60
2023/10/21 09:50:40;;;;;;;3.53;0.10;;;;;;;15.93;67.77;98409.44;10339194;28;20405;-59
2023/10/21 09:55:42;;;;;;;1.75;0.30;;;;;;;16.34;65.03;98418.38;10334773;28;20049;-58
2023/10/21 10:00:44;;;;;;;1.55;0.30;;;;;;;17.05;63.16;98415.00;10342820;28;20072;-59
2023/10/21 10:05:46;;;;;;;2.10;0.30;;;;;;;17.28;61.65;98414.56;10347534;28;20139;-57
2023/10/21 10:10:50;;;;;;;0.93;0.10;;;;;;;16.90;62.11;98426.03;10340762;28;20113;-59
2023/10/21 10:15:52;;;;;;;0.45;0.10;;;;;;;16.66;63.63;98414.00;10344321;28;20050;-58
2023/10/21 10:20:57;;;;;;;2.80;0.50;;;;;;;17.13;62.78;98427.44;10342124;28;20079;-59
2023/10/21 10:26:01;;;;;;;2.60;0.47;;;;;;;16.98;62.60;98442.94;10342496;28;20045;-58
2023/10/21 10:31:04;;;;;;;1.88;0.10;;;;;;;16.57;64.23;98437.59;10345861;28;20091;-58
2023/10/21 10:36:06;;;;;;;3.63;0.45;;;;;;;16.56;64.91;98417.13;10332937;28;20056;-58
2023/10/21 10:41:11;;;;;;;0.80;0.20;;;;;;;16.70;64.79;98436.75;10346279;28;20494;-58
2023/10/21 10:46:17;;;;;;;2.28;0.60;;;;;;;16.65;65.26;98435.72;10331942;28;20091;-58
2023/10/21 10:51:23;;;;;;;2.75;0.40;;;;;;;16.48;65.53;98444.16;10330462;28;20340;-62
2023/10/21 10:56:38;;;;;;;0.45;0.10;;;;;;;16.59;63.84;98407.84;10337263;28;20112;-58
2023/10/21 11:01:41;;;;;;;1.05;0.40;;;;;;;16.62;64.93;98434.28;10345752;28;20049;-57
2023/10/21 11:06:45;;;;;;;3.30;0.30;;;;;;;17.39;63.99;98447.22;10338313;28;20065;-58
2023/10/21 11:11:54;;;;;;;3.08;0.30;;;;;;;18.62;58.91;98464.97;10343179;28;20045;-57
2023/10/21 11:17:10;;;;;;;1.87;0.67;;;;;;;18.54;56.89;98452.63;10334270;28;20455;-58
2023/10/21 11:22:26;;;;;;;3.47;0.45;;;;;;;18.26;57.63;98461.09;10342036;28;20264;-60
2023/10/21 11:27:28;;;;;;;3.47;0.50;;;;;;;18.12;57.65;98456.81;10341343;28;20052;-58
2023/10/21 11:32:31;;;;;;;1.38;0.40;;;;;;;18.13;58.42;98447.72;10346088;28;20168;-57
2023/10/21 11:37:33;;;;;;;1.80;0.47;;;;;;;18.64;58.07;98446.72;10341909;28;20159;-57
2023/10/21 11:42:35;;;;;;;1.65;0.45;;;;;;;19.12;55.33;98447.16;10344921;28;20046;-59
2023/10/21 11:47:37;;;;;;;1.30;0.20;;;;;;;18.62;55.27;98454.22;10344711;28;20054;-58
2023/10/21 11:52:44;;;;;;;1.30;0.40;;;;;;;18.36;58.18;98456.06;10341927;28;20052;-58
2023/10/21 12:29:53;;;;;;;2.72;0.40;;;;;;;22.72;41.20;98466.44;10343588;28;20056;-57
2023/10/21 12:34:35;;;;;;;0.93;0.28;;;;;;;22.75;42.56;98455.09;10335084;28;20125;-58
2023/10/21 12:39:38;;;;;;;1.40;0.28;;;;;;;22.81;42.47;98464.97;10333877;28;20053;-60
2023/10/21 12:44:47;;;;;;;2.40;0.50;;;;;;;22.49;42.09;98470.97;10342707;28;20056;-58
2023/10/21 12:49:50;;;;;;;1.80;0.65;;;;;;;24.20;39.16;98471.44;10341664;28;20155;-58
2023/10/21 12:54:52;;;;;;;1.80;0.40;;;;;;;23.39;40.93;98497.31;10342797;28;20776;-57
2023/10/21 12:59:53;;;;;;;1.20;0.30;;;;;;;21.61;44.06;98473.84;10337412;28;20316;-57
2023/10/21 13:04:55;;;;;;;2.28;0.65;;;;;;;20.49;44.79;98484.50;10331542;28;20501;-58
2023/10/21 13:09:58;;;;;;;2.08;0.57;;;;;;;19.97;47.61;98484.19;10330807;28;20069;-57
2023/10/21 13:15:02;;;;;;;1.65;0.50;;;;;;;19.67;49.37;98479.53;10334801;28;20171;-58
2023/10/21 13:20:05;;;;;;;2.05;0.75;;;;;;;19.53;48.93;98476.19;10336215;28;20434;-58
2023/10/21 13:25:08;;;;;;;1.07;0.30;;;;;;;19.63;49.44;98464.84;10317491;28;20116;-58
2023/10/21 13:30:21;;;;;;;3.08;0.70;;;;;;;23.20;41.33;98481.31;10336610;28;20395;-58
2023/10/21 13:35:22;;;;;;;3.10;0.32;;;;;;;22.49;41.36;98470.97;10335313;28;20599;-58
2023/10/21 13:40:29;;;;;;;1.75;0.40;;;;;;;21.48;43.16;98491.16;10335206;28;20045;-57
2023/10/21 13:45:32;;;;;;;0.88;0.60;;;;;;;20.29;44.48;98492.88;10331156;28;20522;-58
2023/10/21 13:50:36;;;;;;;1.83;0.50;;;;;;;19.85;46.17;98496.81;10309739;28;20480;-57
2023/10/21 13:55:38;;;;;;;;;;;;;;;19.85;45.55;98497.63;10332147;28;20057;-58
2023/10/21 14:00:40;;;;;;;1.73;0.63;;;;;;;19.74;45.99;98499.19;10338620;28;19926;-58
2023/10/21 14:05:51;;;;;;;2.63;0.32;;;;;;;19.99;45.41;98511.78;10330844;28;20834;-57
2023/10/21 14:10:54;;;;;;;1.10;0.35;;;;;;;19.37;47.49;98514.56;10329465;28;20045;-58
2023/10/21 14:16:01;;;;;;;1.48;0.60;;;;;;;19.25;48.95;98522.53;10330144;28;21803;-58
2023/10/21 14:21:03;;;;;;;2.03;0.40;;;;;;;20.40;44.58;98515.59;10337978;28;20049;-58
2023/10/21 14:26:07;;;;;;;2.00;0.40;;;;;;;22.48;40.14;98518.09;10332647;28;20485;-59
2023/10/21 14:31:09;;;;;;;1.67;0.50;;;;;;;22.47;40.86;98519.16;10325479;28;20258;-55
2023/10/21 14:36:10;;;;;;;1.38;0.45;;;;;;;21.98;41.67;98532.28;10329104;28;20073;-55
2023/10/21 14:41:13;;;;;;;1.85;0.50;;;;;;;20.92;42.83;98525.84;10323573;28;20052;-55
2023/10/21 14:46:14;;;;;;;1.88;0.30;;;;;;;20.28;45.73;98539.03;10336856;28;20053;-55
2023/10/21 14:51:16;;;;;;;2.30;0.40;;;;;;;20.09;46.43;98544.47;10335852;28;20721;-54
2023/10/21 14:56:19;;;;;;;3.58;1.10;;;;;;;19.94;46.66;98552.97;10331847;28;20442;-56
2023/10/21 15:01:21;;;;;;;;;;;;;;;19.43;46.00;98522.56;10333822;28;20062;-54
2023/10/21 15:06:27;;;;;;;2.85;0.50;;;;;;;19.24;48.35;98532.50;10330975;28;19948;-53
2023/10/21 15:11:29;;;;;;;2.30;0.63;;;;;;;19.17;47.86;98560.56;10335676;28;20502;-58
2023/10/21 15:16:31;;;;;;;3.00;0.68;;;;;;;18.98;47.08;98557.81;10332418;28;20090;-58
2023/10/21 15:21:32;;;;;;;2.70;0.43;;;;;;;18.98;47.85;98567.78;10315713;28;20364;-58
2023/10/21 15:26:34;;;;;;;2.42;0.55;;;;;;;18.73;47.88;98555.06;10329922;28;20106;-58
2023/10/21 15:31:36;;;;;;;3.42;0.38;;;;;;;18.66;47.72;98565.91;10333489;28;20068;-57
2023/10/21 15:36:39;;;;;;;1.23;0.60;;;;;;;18.53;48.11;98568.69;10340559;28;20049;-58
2023/10/21 15:41:41;;;;;;;2.92;0.75;;;;;;;18.45;48.84;98568.91;10330916;28;20889;-58
2023/10/21 15:46:42;;;;;;;2.25;0.40;;;;;;;18.41;49.21;98578.50;10334596;28;20194;-58
2023/10/21 15:51:44;;;;;;;1.83;0.60;;;;;;;18.28;48.95;98576.69;10337750;28;20064;-58
2023/10/21 15:56:46;;;;;;;2.38;0.57;;;;;;;18.17;49.55;98573.63;10333606;28;20073;-57
2023/10/21 16:01:47;;;;;;;2.13;1.17;;;;;;;18.16;50.04;98596.19;10334268;28;20052;-58
2023/10/21 16:06:48;;;;;;;2.95;0.88;;;;;;;17.93;50.88;98577.84;10338303;28;20056;-58
2023/10/21 16:11:50;;;;;;;3.65;0.65;;;;;;;18.08;51.74;98607.22;10336990;28;20064;-58
2023/10/21 16:16:52;;;;;;;2.10;0.93;;;;;;;18.06;51.44;98606.59;10337637;28;20053;-57
2023/10/21 16:21:54;;;;;;;1.73;1.10;;;;;;;18.01;52.04;98619.88;10335160;28;20254;-57
2023/10/21 16:26:55;;;;;;;4.68;1.30;;;;;;;17.95;53.04;98616.13;10331643;28;20132;-57
2023/10/21 16:31:57;;;;;;;3.22;1.33;;;;;;;17.89;51.97;98633.13;10338882;28;20175;-57
2023/10/21 16:37:00;;;;;;;3.78;1.15;;;;;;;17.87;53.15;98637.88;10333585;28;20060;-57
2023/10/21 16:42:02;;;;;;;4.17;1.40;;;;;;;17.82;54.28;98646.59;10332765;28;20057;-59
2023/10/21 16:47:04;;;;;;;1.98;1.08;;;;;;;17.74;53.73;98649.50;10338895;28;20497;-59
2023/10/21 16:52:05;;;;;;;3.13;1.00;;;;;;;17.70;53.54;98652.81;10333798;28;20128;-58
2023/10/21 16:57:07;;;;;;;3.30;0.80;;;;;;;17.63;53.44;98667.09;10338968;28;20045;-58
2023/10/21 17:02:11;;;;;;;2.00;0.98;;;;;;;17.35;53.63;98650.34;10328334;28;20054;-61
2023/10/21 17:07:13;;;;;;;2.13;1.05;;;;;;;17.51;54.18;98684.91;10319649;28;20059;-59
2023/10/21 17:12:15;;;;;;;3.22;0.98;;;;;;;17.51;54.24;98687.59;10331133;28;20143;-58
2023/10/21 17:17:16;;;;;;;4.38;1.10;;;;;;;17.48;55.72;98694.22;10335172;28;21457;-59
2023/10/21 17:22:18;;;;;;;5.47;1.65;;;;;;;17.48;55.86;98701.47;10335836;28;20044;-57
2023/10/21 17:27:20;;;;;;;4.63;1.55;;;;;;;17.37;55.48;98705.59;10325769;28;20536;-58
2023/10/21 17:32:21;;;;;;;4.28;1.58;;;;;;;17.32;55.61;98708.06;10331660;28;20057;-58
2023/10/21 17:37:23;;;;;;;2.92;1.15;;;;;;;17.21;55.91;98698.75;10334410;28;20116;-58
2023/10/21 17:42:24;;;;;;;2.70;1.35;;;;;;;17.20;55.51;98718.56;10323413;28;20426;-58
2023/10/21 17:47:26;;;;;;;2.88;1.20;;;;;;;17.13;55.67;98721.28;10332436;28;20049;-58
2023/10/21 17:52:28;;;;;;;2.30;1.13;;;;;;;17.01;55.41;98714.00;10328034;28;20084;-58
2023/10/21 17:57:29;;;;;;;2.97;1.42;;;;;;;17.08;55.65;98720.22;10330219;28;20126;-58
2023/10/21 18:02:32;;;;;;;3.92;1.63;;;;;;;16.95;55.46;98710.28;10335589;28;20512;-58
2023/10/21 18:07:34;;;;;;;2.67;1.48;;;;;;;16.91;56.15;98728.66;10340114;28;20045;-57
2023/10/21 18:12:36;;;;;;;2.85;1.05;;;;;;;16.81;56.48;98712.03;10326085;28;20052;-58
2023/10/21 18:17:38;;;;;;;1.67;1.20;;;;;;;16.79;56.96;98731.06;10351139;28;20465;-58
2023/10/21 18:22:39;;;;;;;3.58;0.88;;;;;;;16.68;57.36;98730.78;10344585;28;21118;-59
2023/10/21 18:27:41;;;;;;;2.25;1.15;;;;;;;16.57;57.50;98733.03;10344280;28;20048;-58
2023/10/21 18:32:42;;;;;;;2.83;0.80;;;;;;;16.45;57.85;98723.88;10342933;28;20077;-58
2023/10/21 18:37:46;;;;;;;3.50;1.17;;;;;;;16.36;57.55;98741.19;10347238;28;20131;-58
2023/10/21 18:42:47;;;;;;;2.07;0.80;;;;;;;16.25;58.48;98739.88;10345123;28;20181;-57
2023/10/21 18:47:49;;;;;;;2.63;1.30;;;;;;;16.08;58.91;98731.31;10342201;28;20477;-58
2023/10/21 18:52:51;;;;;;;2.20;1.00;;;;;;;16.13;58.78;98747.66;10344675;28;20195;-58
2023/10/21 18:57:53;;;;;;;3.63;1.42;;;;;;;15.93;59.28;98730.56;10340439;28;20061;-58
2023/10/21 19:02:56;;;;;;;3.30;1.40;;;;;;;16.05;59.11;98753.19;10347785;28;20049;-58
2023/10/21 19:07:58;;;;;;;2.67;1.40;;;;;;;16.07;59.63;98775.28;10343119;28;20049;-60
2023/10/21 19:12:59;;;;;;;4.18;1.30;;;;;;;15.99;60.01;98780.78;10344432;28;20048;-59
2023/10/21 19:18:04;;;;;;;3.15;1.40;;;;;;;15.94;60.72;98785.91;10351532;28;20701;-59
2023/10/21 19:23:06;;;;;;;4.72;1.35;;;;;;;15.93;60.88;98794.97;10345263;28;20058;-58
2023/10/21 19:28:08;;;;;;;3.63;1.25;;;;;;;15.89;61.51;98800.72;10350873;28;20792;-58
2023/10/21 19:33:09;;;;;;;3.28;1.63;;;;;;;15.79;61.70;98794.03;10343902;28;20057;-58
2023/10/21 19:38:11;;;;;;;2.13;1.08;;;;;;;15.79;62.26;98808.28;10348526;28;20064;-59
2023/10/21 19:43:13;;;;;;;3.03;1.60;;;;;;;15.78;62.07;98812.00;10344508;28;20493;-59
2023/10/21 19:48:15;;;;;;;2.88;1.10;;;;;;;15.72;62.95;98815.41;10336338;28;20053;-56
2023/10/21 19:53:17;;;;;;;3.75;1.45;;;;;;;15.72;63.36;98818.09;10343711;28;20062;-56
2023/10/21 19:58:21;;;;;;;3.33;1.38;;;;;;;15.56;63.27;98806.59;10338215;28;20155;-56
2023/10/21 20:03:22;;;;;;;3.67;1.35;;;;;;;15.77;63.08;98842.50;10342946;28;20144;-56
2023/10/21 20:08:25;;;;;;;4.13;1.40;;;;;;;15.67;61.49;98836.59;10335252;28;20065;-55
2023/10/21 20:13:26;;;;;;;2.05;0.90;;;;;;;15.68;61.65;98841.78;10337911;28;20947;-55
2023/10/21 20:18:28;;;;;;;4.50;1.10;;;;;;;15.62;61.32;98831.00;10337019;28;20049;-58
2023/10/21 20:23:31;;;;;;;3.58;1.33;;;;;;;15.68;60.71;98846.31;10335593;28;20776;-58
2023/10/21 20:28:33;;;;;;;3.33;1.40;;;;;;;15.74;61.19;98843.69;10337749;28;20191;-59
2023/10/21 20:33:35;;;;;;;3.70;1.10;;;;;;;15.63;61.31;98844.22;10351985;28;20050;-58
2023/10/21 20:38:38;;;;;;;5.10;1.40;;;;;;;15.67;60.65;98858.06;10340887;28;20058;-59
2023/10/21 20:43:41;;;;;;;2.20;1.05;;;;;;;15.63;60.53;98860.31;10336635;28;20057;-58
2023/10/21 20:48:43;;;;;;;2.45;0.93;;;;;;;15.59;60.65;98864.38;10331908;28;20053;-58
2023/10/21 20:53:45;;;;;;;4.45;1.17;;;;;;;15.55;61.31;98874.66;10346329;28;20054;-58
2023/10/21 20:58:47;;;;;;;4.85;1.40;;;;;;;15.50;60.74;98882.44;10337031;28;20041;-57
2023/10/21 21:03:48;;;;;;;2.50;0.90;;;;;;;15.43;60.51;98878.84;10349860;28;20636;-59
2023/10/21 21:08:51;;;;;;;2.70;1.35;;;;;;;15.33;59.94;98878.34;10351609;28;20067;-58
2023/10/21 21:13:52;;;;;;;2.58;1.15;;;;;;;15.29;59.13;98880.53;10341842;28;20156;-58
2023/10/21 21:18:54;;;;;;;3.60;0.82;;;;;;;15.30;59.32;98881.38;10344663;28;20055;-58
2023/10/21 21:23:56;;;;;;;4.72;1.27;;;;;;;15.33;60.51;98881.00;10342953;28;20636;-61
2023/10/21 21:28:57;;;;;;;1.60;0.73;;;;;;;15.30;59.65;98876.03;10344234;28;20312;-58
2023/10/21 21:33:59;;;;;;;2.28;1.08;;;;;;;15.42;60.98;98877.19;10341293;28;20156;-58
2023/10/21 21:39:01;;;;;;;3.20;0.77;;;;;;;15.43;61.28;98886.88;10342057;28;20052;-58
2023/10/21 21:44:02;;;;;;;3.88;1.30;;;;;;;15.41;62.03;98883.56;10344382;28;20042;-58
2023/10/21 21:49:04;;;;;;;2.70;1.20;;;;;;;15.37;61.24;98891.16;10342024;28;20447;-58
2023/10/21 21:54:06;;;;;;;1.67;0.98;;;;;;;15.35;60.88;98889.69;10343210;28;20061;-59
2023/10/21 21:59:08;;;;;;;2.28;0.70;;;;;;;15.28;61.42;98897.66;10335522;28;20111;-57
2023/10/21 22:04:10;;;;;;;3.22;0.80;;;;;;;15.30;60.69;98892.13;10337880;28;20599;-59
2023/10/21 22:09:16;;;;;;;1.48;0.70;;;;;;;15.18;60.47;98879.19;10343126;28;20132;-58
2023/10/21 22:14:18;;;;;;;2.13;0.80;;;;;;;15.19;60.62;98874.63;10340619;28;20042;-58
2023/10/21 22:19:19;;;;;;;2.63;1.35;;;;;;;15.19;59.62;98888.03;10346373;28;20084;-58
2023/10/21 22:24:21;;;;;;;5.70;1.10;;;;;;;15.13;59.63;98884.28;10340480;28;20065;-57
2023/10/21 22:29:28;;;;;;;1.65;0.70;;;;;;;15.04;58.74;98888.03;10337049;28;20141;-59
2023/10/21 22:34:30;;;;;;;1.85;0.52;;;;;;;15.04;58.93;98896.09;10337669;28;20227;-58
2023/10/21 22:39:32;;;;;;;2.65;1.02;;;;;;;15.02;59.09;98895.44;10338262;28;20668;-58
2023/10/21 22:44:33;;;;;;;2.42;0.98;;;;;;;15.07;58.66;98916.34;10336987;28;20045;-58
2023/10/21 22:49:35;;;;;;;2.92;0.80;;;;;;;15.03;58.42;98916.69;10338295;28;20261;-58
2023/10/21 22:54:37;;;;;;;2.13;0.82;;;;;;;14.99;58.66;98922.63;10335900;28;20061;-58
2023/10/21 22:59:39;;;;;;;2.30;0.75;;;;;;;14.87;58.69;98916.06;10341224;28;20478;-58
2023/10/21 23:04:40;;;;;;;2.47;0.93;;;;;;;14.93;58.99;98928.72;10346159;28;20514;-58
2023/10/21 23:09:47;;;;;;;3.25;0.70;;;;;;;14.88;58.97;98931.09;10345007;28;20041;-58
2023/10/21 23:14:50;;;;;;;4.18;1.00;;;;;;;14.88;59.15;98952.53;10346110;28;20498;-58
2023/10/21 23:19:51;;;;;;;6.80;1.52;;;;;;;14.81;59.89;98942.56;10345786;28;20156;-58
2023/10/21 23:24:53;;;;;;;7.72;1.00;;;;;;;14.78;60.29;98942.91;10347552;28;20809;-58
2023/10/21 23:29:55;;;;;;;3.80;1.13;;;;;;;14.76;60.15;98955.66;10357177;28;20093;-58
2023/10/21 23:34:56;;;;;;;3.17;1.02;;;;;;;14.71;60.74;98952.69;10350544;28;20153;-59
2023/10/21 23:39:58;;;;;;;1.98;0.98;;;;;;;14.76;60.65;98968.25;10355352;28;20103;-58
2023/10/21 23:44:59;;;;;;;2.83;1.20;;;;;;;14.58;60.78;98963.19;10348799;28;20137;-59
2023/10/21 23:50:01;;;;;;;1.85;0.60;;;;;;;14.63;61.22;98969.66;10350320;28;20041;-58
2023/10/21 23:55:05;;;;;;;2.03;1.08;;;;;;;14.62;61.58;98969.84;10346188;28;20058;-59
